sensor_id;sensor_type;location;lat;lon;timestamp;pressure;altitude;pressure_sealevel;temperature;humidity
54920;BME280;63804;53.120;8.764;2023-10-31T00:00:37;99466.63;;;14.32;83.67
54920;BME280;63804;53.120;8.764;2023-10-31T00:03:04;99454.81;;;14.27;83.68
54920;BME280;63804;53.120;8.764;2023-10-31T00:05:32;99455.81;;;14.26;83.99
54920;BME280;63804;53.120;8.764;2023-10-31T00:08:00;99456.66;;;14.26;83.69
54920;BME280;63804;53.120;8.764;2023-10-31T00:10:28;99443.19;;;14.28;83.79
54920;BME280;63804;53.120;8.764;2023-10-31T00:12:59;99450.66;;;14.32;83.81
54920;BME280;63804;53.120;8.764;2023-10-31T00:15:29;99456.63;;;14.34;83.70
54920;BME280;63804;53.120;8.764;2023-10-31T00:17:58;99458.66;;;14.32;83.64
54920;BME280;63804;53.120;8.764;2023-10-31T00:20:26;99457.84;;;14.24;84.13
54920;BME280;63804;53.120;8.764;2023-10-31T00:22:53;99460.00;;;14.20;84.14
54920;BME280;63804;53.120;8.764;2023-10-31T00:25:21;99455.31;;;14.22;84.08
54920;BME280;63804;53.120;8.764;2023-10-31T00:27:49;99445.34;;;14.24;84.05
54920;BME280;63804;53.120;8.764;2023-10-31T00:30:20;99450.69;;;14.24;84.18
54920;BME280;63804;53.120;8.764;2023-10-31T00:32:48;99456.16;;;14.23;83.93
54920;BME280;63804;53.120;8.764;2023-10-31T00:35:16;99459.81;;;14.22;84.04
54920;BME280;63804;53.120;8.764;2023-10-31T00:37:44;99450.69;;;14.24;84.01
54920;BME280;63804;53.120;8.764;2023-10-31T00:40:11;99452.50;;;14.24;83.94
54920;BME280;63804;53.120;8.764;2023-10-31T00:42:39;99451.00;;;14.21;83.99
54920;BME280;63804;53.120;8.764;2023-10-31T00:45:09;99455.81;;;14.26;84.08
54920;BME280;63804;53.120;8.764;2023-10-31T00:47:37;99451.81;;;14.30;83.72
54920;BME280;63804;53.120;8.764;2023-10-31T00:50:05;99453.84;;;14.28;84.13
54920;BME280;63804;53.120;8.764;2023-10-31T00:52:32;99451.66;;;14.31;83.73
54920;BME280;63804;53.120;8.764;2023-10-31T00:55:00;99447.16;;;14.32;83.74
54920;BME280;63804;53.120;8.764;2023-10-31T00:57:28;99434.84;;;14.31;83.94
54920;BME280;63804;53.120;8.764;2023-10-31T00:59:57;99439.81;;;14.34;83.92
54920;BME280;63804;53.120;8.764;2023-10-31T01:02:24;99433.69;;;14.25;84.12
54920;BME280;63804;53.120;8.764;2023-10-31T01:04:52;99428.53;;;14.24;84.51
54920;BME280;63804;53.120;8.764;2023-10-31T01:07:20;99426.22;;;14.21;84.33
54920;BME280;63804;53.120;8.764;2023-10-31T01:09:47;99422.03;;;14.26;84.20
54920;BME280;63804;53.120;8.764;2023-10-31T01:12:15;99420.03;;;14.28;84.22
54920;BME280;63804;53.120;8.764;2023-10-31T01:14:43;99414.72;;;14.28;84.10
54920;BME280;63804;53.120;8.764;2023-10-31T01:17:10;99420.69;;;14.30;84.13
54920;BME280;63804;53.120;8.764;2023-10-31T01:19:38;99415.38;;;14.30;84.01
54920;BME280;63804;53.120;8.764;2023-10-31T01:22:06;99422.38;;;14.31;84.00
54920;BME280;63804;53.120;8.764;2023-10-31T01:24:34;99425.19;;;14.30;84.15
54920;BME280;63804;53.120;8.764;2023-10-31T01:27:02;99429.19;;;14.26;84.32
54920;BME280;63804;53.120;8.764;2023-10-31T01:29:30;99425.69;;;14.25;84.30
54920;BME280;63804;53.120;8.764;2023-10-31T01:31:57;99418.38;;;14.27;84.49
54920;BME280;63804;53.120;8.764;2023-10-31T01:34:31;99413.72;;;14.21;84.57
54920;BME280;63804;53.120;8.764;2023-10-31T01:36:59;99414.22;;;14.25;84.27
54920;BME280;63804;53.120;8.764;2023-10-31T01:39:26;99410.06;;;14.22;84.57
54920;BME280;63804;53.120;8.764;2023-10-31T01:41:54;99399.06;;;14.25;84.41
54920;BME280;63804;53.120;8.764;2023-10-31T01:44:22;99396.22;;;14.27;84.43
54920;BME280;63804;53.120;8.764;2023-10-31T01:46:49;99396.22;;;14.27;84.52
54920;BME280;63804;53.120;8.764;2023-10-31T01:49:17;99390.75;;;14.28;84.42
54920;BME280;63804;53.120;8.764;2023-10-31T01:51:45;99386.25;;;14.29;84.26
54920;BME280;63804;53.120;8.764;2023-10-31T01:54:14;99383.78;;;14.27;84.30
54920;BME280;63804;53.120;8.764;2023-10-31T01:56:42;99394.41;;;14.27;84.34
54920;BME280;63804;53.120;8.764;2023-10-31T01:59:10;99382.91;;;14.27;84.23
54920;BME280;63804;53.120;8.764;2023-10-31T02:01:38;99386.56;;;14.34;84.03
54920;BME280;63804;53.120;8.764;2023-10-31T02:04:09;99386.06;;;14.30;83.92
54920;BME280;63804;53.120;8.764;2023-10-31T02:06:37;99387.75;;;14.31;84.20
54920;BME280;63804;53.120;8.764;2023-10-31T02:09:05;99390.91;;;14.35;84.06
54920;BME280;63804;53.120;8.764;2023-10-31T02:11:32;99383.25;;;14.32;84.11
54920;BME280;63804;53.120;8.764;2023-10-31T02:14:01;99380.09;;;14.28;84.35
54920;BME280;63804;53.120;8.764;2023-10-31T02:16:29;99368.44;;;14.29;84.41
54920;BME280;63804;53.120;8.764;2023-10-31T02:18:56;99367.09;;;14.33;84.32
54920;BME280;63804;53.120;8.764;2023-10-31T02:21:25;99366.75;;;14.36;84.23
54920;BME280;63804;53.120;8.764;2023-10-31T02:24:00;99368.91;;;14.41;84.06
54920;BME280;63804;53.120;8.764;2023-10-31T02:26:33;99369.72;;;14.42;83.86
54920;BME280;63804;53.120;8.764;2023-10-31T02:29:01;99365.44;;;14.32;84.20
54920;BME280;63804;53.120;8.764;2023-10-31T02:31:30;99364.75;;;14.30;84.37
54920;BME280;63804;53.120;8.764;2023-10-31T02:33:57;99361.75;;;14.33;84.18
54920;BME280;63804;53.120;8.764;2023-10-31T02:36:25;99360.94;;;14.33;84.28
54920;BME280;63804;53.120;8.764;2023-10-31T02:38:53;99367.91;;;14.34;84.32
54920;BME280;63804;53.120;8.764;2023-10-31T02:41:20;99357.63;;;14.31;84.27
54920;BME280;63804;53.120;8.764;2023-10-31T02:43:48;99346.00;;;14.24;84.62
54920;BME280;63804;53.120;8.764;2023-10-31T02:46:15;99346.97;;;14.31;84.56
54920;BME280;63804;53.120;8.764;2023-10-31T02:48:43;99341.13;;;14.35;84.19
54920;BME280;63804;53.120;8.764;2023-10-31T02:51:11;99340.63;;;14.32;84.28
54920;BME280;63804;53.120;8.764;2023-10-31T02:53:38;99347.47;;;14.26;84.53
54920;BME280;63804;53.120;8.764;2023-10-31T02:56:06;99342.63;;;14.30;84.75
54920;BME280;63804;53.120;8.764;2023-10-31T02:58:34;99337.63;;;14.35;84.26
54920;BME280;63804;53.120;8.764;2023-10-31T03:01:02;99338.47;;;14.35;84.27
54920;BME280;63804;53.120;8.764;2023-10-31T03:03:29;99334.97;;;14.35;84.26
54920;BME280;63804;53.120;8.764;2023-10-31T03:05:57;99335.97;;;14.34;84.60
54920;BME280;63804;53.120;8.764;2023-10-31T03:08:24;99334.63;;;14.30;84.68
54920;BME280;63804;53.120;8.764;2023-10-31T03:10:52;99337.81;;;14.25;84.84
54920;BME280;63804;53.120;8.764;2023-10-31T03:13:20;99345.47;;;14.28;84.95
54920;BME280;63804;53.120;8.764;2023-10-31T03:15:47;99343.31;;;14.32;84.50
54920;BME280;63804;53.120;8.764;2023-10-31T03:18:15;99336.97;;;14.33;84.53
54920;BME280;63804;53.120;8.764;2023-10-31T03:20:44;99338.63;;;14.34;84.64
54920;BME280;63804;53.120;8.764;2023-10-31T03:23:13;99332.31;;;14.35;84.29
54920;BME280;63804;53.120;8.764;2023-10-31T03:25:41;99318.66;;;14.30;84.64
54920;BME280;63804;53.120;8.764;2023-10-31T03:28:19;99312.44;;;14.46;84.08
54920;BME280;63804;53.120;8.764;2023-10-31T03:30:47;99311.94;;;14.42;84.23
54920;BME280;63804;53.120;8.764;2023-10-31T03:33:15;99308.13;;;14.45;84.08
54920;BME280;63804;53.120;8.764;2023-10-31T03:35:46;99307.28;;;14.44;84.15
54920;BME280;63804;53.120;8.764;2023-10-31T03:38:14;99307.81;;;14.39;84.28
54920;BME280;63804;53.120;8.764;2023-10-31T03:40:42;99298.84;;;14.32;84.55
54920;BME280;63804;53.120;8.764;2023-10-31T03:43:10;99297.16;;;14.39;84.46
54920;BME280;63804;53.120;8.764;2023-10-31T03:45:37;99290.63;;;14.42;84.41
54920;BME280;63804;53.120;8.764;2023-10-31T03:48:05;99294.81;;;14.45;84.05
54920;BME280;63804;53.120;8.764;2023-10-31T03:50:32;99297.47;;;14.45;84.11
54920;BME280;63804;53.120;8.764;2023-10-31T03:53:00;99291.50;;;14.43;84.28
54920;BME280;63804;53.120;8.764;2023-10-31T03:55:28;99302.97;;;14.43;84.39
54920;BME280;63804;53.120;8.764;2023-10-31T03:57:55;99301.28;;;14.42;84.33
54920;BME280;63804;53.120;8.764;2023-10-31T04:00:23;99298.28;;;14.45;84.48
54920;BME280;63804;53.120;8.764;2023-10-31T04:02:51;99292.81;;;14.47;84.22
54920;BME280;63804;53.120;8.764;2023-10-31T04:05:19;99295.47;;;14.47;84.42
54920;BME280;63804;53.120;8.764;2023-10-31T04:07:47;99295.47;;;14.47;84.44
54920;BME280;63804;53.120;8.764;2023-10-31T04:10:19;99292.94;;;14.53;84.21
54920;BME280;63804;53.120;8.764;2023-10-31T04:12:46;99291.13;;;14.46;84.84
54920;BME280;63804;53.120;8.764;2023-10-31T04:15:14;99290.19;;;14.30;85.08
54920;BME280;63804;53.120;8.764;2023-10-31T04:17:42;99288.09;;;14.18;85.80
54920;BME280;63804;53.120;8.764;2023-10-31T04:20:10;99284.91;;;14.22;86.03
54920;BME280;63804;53.120;8.764;2023-10-31T04:22:37;99281.28;;;14.23;85.58
54920;BME280;63804;53.120;8.764;2023-10-31T04:25:05;99285.25;;;14.27;85.44
54920;BME280;63804;53.120;8.764;2023-10-31T04:27:32;99283.53;;;14.34;85.16
54920;BME280;63804;53.120;8.764;2023-10-31T04:30:01;99289.72;;;14.35;85.19
54920;BME280;63804;53.120;8.764;2023-10-31T04:32:29;99278.88;;;14.36;85.26
54920;BME280;63804;53.120;8.764;2023-10-31T04:34:57;99278.34;;;14.41;85.06
54920;BME280;63804;53.120;8.764;2023-10-31T04:37:25;99282.50;;;14.44;84.88
54920;BME280;63804;53.120;8.764;2023-10-31T04:39:52;99280.19;;;14.41;85.22
54920;BME280;63804;53.120;8.764;2023-10-31T04:42:20;99274.66;;;14.42;85.11
54920;BME280;63804;53.120;8.764;2023-10-31T04:44:48;99269.00;;;14.45;84.76
54920;BME280;63804;53.120;8.764;2023-10-31T04:47:15;99276.97;;;14.45;84.75
54920;BME280;63804;53.120;8.764;2023-10-31T04:49:43;99264.88;;;14.43;84.87
54920;BME280;63804;53.120;8.764;2023-10-31T04:52:11;99275.53;;;14.43;84.65
54920;BME280;63804;53.120;8.764;2023-10-31T04:54:40;99278.19;;;14.43;84.90
54920;BME280;63804;53.120;8.764;2023-10-31T04:57:07;99276.50;;;14.42;84.69
54920;BME280;63804;53.120;8.764;2023-10-31T04:59:35;99288.66;;;14.44;84.63
54920;BME280;63804;53.120;8.764;2023-10-31T05:02:03;99284.16;;;14.45;84.41
54920;BME280;63804;53.120;8.764;2023-10-31T05:04:30;99278.34;;;14.41;84.35
54920;BME280;63804;53.120;8.764;2023-10-31T05:06:58;99293.53;;;14.32;84.48
54920;BME280;63804;53.120;8.764;2023-10-31T05:09:25;99289.03;;;14.33;84.31
54920;BME280;63804;53.120;8.764;2023-10-31T05:11:54;99288.03;;;14.34;84.05
54920;BME280;63804;53.120;8.764;2023-10-31T05:14:22;99283.53;;;14.34;83.78
54920;BME280;63804;53.120;8.764;2023-10-31T05:16:50;99290.88;;;14.32;83.65
54920;BME280;63804;53.120;8.764;2023-10-31T05:19:17;99295.03;;;14.35;83.55
54920;BME280;63804;53.120;8.764;2023-10-31T05:21:45;99287.69;;;14.37;83.39
54920;BME280;63804;53.120;8.764;2023-10-31T05:24:13;99294.69;;;14.30;83.41
54920;BME280;63804;53.120;8.764;2023-10-31T05:26:40;99300.03;;;14.30;83.45
54920;BME280;63804;53.120;8.764;2023-10-31T05:29:11;99300.03;;;14.30;83.03
54920;BME280;63804;53.120;8.764;2023-10-31T05:31:39;99292.75;;;14.24;83.27
54920;BME280;63804;53.120;8.764;2023-10-31T05:34:06;99298.91;;;14.24;82.96
54920;BME280;63804;53.120;8.764;2023-10-31T05:36:34;99304.53;;;14.29;82.55
54920;BME280;63804;53.120;8.764;2023-10-31T05:39:02;99303.03;;;14.27;82.37
54920;BME280;63804;53.120;8.764;2023-10-31T05:41:29;99306.06;;;14.15;82.07
54920;BME280;63804;53.120;8.764;2023-10-31T05:43:57;99323.25;;;14.05;82.52
54920;BME280;63804;53.120;8.764;2023-10-31T05:46:25;99325.28;;;13.95;82.16
54920;BME280;63804;53.120;8.764;2023-10-31T05:48:54;99348.25;;;13.79;81.69
54920;BME280;63804;53.120;8.764;2023-10-31T05:51:21;99358.44;;;13.51;81.61
54920;BME280;63804;53.120;8.764;2023-10-31T05:53:49;99346.78;;;13.44;81.52
54920;BME280;63804;53.120;8.764;2023-10-31T05:56:16;99357.56;;;13.34;81.54
54920;BME280;63804;53.120;8.764;2023-10-31T05:58:44;99372.88;;;13.32;81.18
54920;BME280;63804;53.120;8.764;2023-10-31T06:01:12;99376.66;;;13.22;81.20
54920;BME280;63804;53.120;8.764;2023-10-31T06:03:43;99373.69;;;13.25;80.78
54920;BME280;63804;53.120;8.764;2023-10-31T06:06:12;99385.44;;;13.06;80.95
54920;BME280;63804;53.120;8.764;2023-10-31T06:08:41;99388.91;;;13.06;80.95
54920;BME280;63804;53.120;8.764;2023-10-31T06:11:09;99397.19;;;13.03;81.00
54920;BME280;63804;53.120;8.764;2023-10-31T06:13:40;99403.34;;;12.96;81.00
54920;BME280;63804;53.120;8.764;2023-10-31T06:16:08;99406.19;;;13.02;80.80
54920;BME280;63804;53.120;8.764;2023-10-31T06:18:37;99427.94;;;12.98;80.83
54920;BME280;63804;53.120;8.764;2023-10-31T06:21:06;99423.41;;;12.90;81.43
54920;BME280;63804;53.120;8.764;2023-10-31T06:23:39;99440.34;;;12.89;81.29
54920;BME280;63804;53.120;8.764;2023-10-31T06:26:06;99432.53;;;12.87;81.21
54920;BME280;63804;53.120;8.764;2023-10-31T06:28:34;99444.75;;;12.72;81.33
54920;BME280;63804;53.120;8.764;2023-10-31T06:31:11;99434.78;;;12.74;81.53
54920;BME280;63804;53.120;8.764;2023-10-31T06:33:39;99458.03;;;12.72;81.13
54920;BME280;63804;53.120;8.764;2023-10-31T06:36:07;99452.56;;;12.74;81.10
54920;BME280;63804;53.120;8.764;2023-10-31T06:38:35;99467.69;;;12.81;80.78
54920;BME280;63804;53.120;8.764;2023-10-31T06:41:03;99453.59;;;12.81;80.37
54920;BME280;63804;53.120;8.764;2023-10-31T06:43:31;99475.66;;;12.81;80.32
54920;BME280;63804;53.120;8.764;2023-10-31T06:46:02;99476.84;;;12.79;79.70
54920;BME280;63804;53.120;8.764;2023-10-31T06:48:31;99481.63;;;12.75;80.12
54920;BME280;63804;53.120;8.764;2023-10-31T06:50:59;99479.50;;;12.79;80.07
54920;BME280;63804;53.120;8.764;2023-10-31T06:53:26;99490.56;;;12.74;79.55
54920;BME280;63804;53.120;8.764;2023-10-31T06:55:54;99513.81;;;12.72;79.07
54920;BME280;63804;53.120;8.764;2023-10-31T06:58:22;99500.50;;;12.64;79.40
54920;BME280;63804;53.120;8.764;2023-10-31T07:00:49;99505.66;;;12.65;79.59
54920;BME280;63804;53.120;8.764;2023-10-31T07:03:17;99507.47;;;12.65;79.22
54920;BME280;63804;53.120;8.764;2023-10-31T07:05:44;99516.56;;;12.62;79.29
54920;BME280;63804;53.120;8.764;2023-10-31T07:08:12;99531.84;;;12.60;79.37
54920;BME280;63804;53.120;8.764;2023-10-31T07:10:40;99530.91;;;12.69;79.26
54920;BME280;63804;53.120;8.764;2023-10-31T07:13:07;99544.97;;;12.62;79.17
54920;BME280;63804;53.120;8.764;2023-10-31T07:15:35;99541.44;;;12.53;79.95
54920;BME280;63804;53.120;8.764;2023-10-31T07:18:06;99563.97;;;12.49;80.34
54920;BME280;63804;53.120;8.764;2023-10-31T07:20:35;99561.31;;;12.49;80.08
54920;BME280;63804;53.120;8.764;2023-10-31T07:23:02;99556.88;;;12.58;80.18
54920;BME280;63804;53.120;8.764;2023-10-31T07:25:30;99573.00;;;12.56;79.97
54920;BME280;63804;53.120;8.764;2023-10-31T07:27:57;99563.56;;;12.62;79.74
54920;BME280;63804;53.120;8.764;2023-10-31T07:30:25;99580.31;;;12.62;79.97
54920;BME280;63804;53.120;8.764;2023-10-31T07:32:53;99592.41;;;12.57;80.04
54920;BME280;63804;53.120;8.764;2023-10-31T07:35:20;99588.63;;;12.59;80.20
54920;BME280;63804;53.120;8.764;2023-10-31T07:37:48;99604.22;;;12.62;79.75
54920;BME280;63804;53.120;8.764;2023-10-31T07:40:16;99608.81;;;12.52;80.11
54920;BME280;63804;53.120;8.764;2023-10-31T07:42:43;99616.44;;;12.55;80.30
54920;BME280;63804;53.120;8.764;2023-10-31T07:45:11;99610.63;;;12.52;79.74
54920;BME280;63804;53.120;8.764;2023-10-31T07:47:39;99620.03;;;12.64;79.30
54920;BME280;63804;53.120;8.764;2023-10-31T07:50:07;99624.13;;;12.58;79.36
54920;BME280;63804;53.120;8.764;2023-10-31T07:52:34;99631.94;;;12.60;79.33
54920;BME280;63804;53.120;8.764;2023-10-31T07:55:02;99632.47;;;12.63;79.40
54920;BME280;63804;53.120;8.764;2023-10-31T07:57:30;99652.78;;;12.55;79.47
54920;BME280;63804;53.120;8.764;2023-10-31T07:59:57;99640.69;;;12.52;79.19
54920;BME280;63804;53.120;8.764;2023-10-31T08:02:25;99648.47;;;12.54;79.44
54920;BME280;63804;53.120;8.764;2023-10-31T08:04:56;99658.03;;;12.64;79.08
54920;BME280;63804;53.120;8.764;2023-10-31T08:07:23;99661.44;;;12.75;79.19
54920;BME280;63804;53.120;8.764;2023-10-31T08:09:51;99660.28;;;12.77;78.66
54920;BME280;63804;53.120;8.764;2023-10-31T08:12:19;99667.91;;;12.72;78.94
54920;BME280;63804;53.120;8.764;2023-10-31T08:14:46;99674.09;;;12.63;78.88
54920;BME280;63804;53.120;8.764;2023-10-31T08:17:14;99674.03;;;12.73;78.56
54920;BME280;63804;53.120;8.764;2023-10-31T08:19:41;99683.31;;;12.68;78.89
54920;BME280;63804;53.120;8.764;2023-10-31T08:22:09;99689.16;;;12.72;78.89
54920;BME280;63804;53.120;8.764;2023-10-31T08:24:37;99684.19;;;12.77;78.99
54920;BME280;63804;53.120;8.764;2023-10-31T08:27:05;99686.19;;;12.75;78.97
54920;BME280;63804;53.120;8.764;2023-10-31T08:29:34;99691.50;;;12.75;79.13
54920;BME280;63804;53.120;8.764;2023-10-31T08:32:02;99696.00;;;12.75;79.35
54920;BME280;63804;53.120;8.764;2023-10-31T08:34:30;99705.16;;;12.80;79.43
54920;BME280;63804;53.120;8.764;2023-10-31T08:36:58;99709.81;;;12.78;79.15
54920;BME280;63804;53.120;8.764;2023-10-31T08:39:26;99698.84;;;12.81;79.29
54920;BME280;63804;53.120;8.764;2023-10-31T08:41:56;99709.53;;;12.89;79.38
54920;BME280;63804;53.120;8.764;2023-10-31T08:44:23;99714.00;;;13.07;78.74
54920;BME280;63804;53.120;8.764;2023-10-31T08:46:51;99719.16;;;13.08;78.67
54920;BME280;63804;53.120;8.764;2023-10-31T08:49:19;99714.53;;;13.10;78.84
54920;BME280;63804;53.120;8.764;2023-10-31T08:51:47;99714.59;;;13.18;79.14
54920;BME280;63804;53.120;8.764;2023-10-31T08:54:14;99715.56;;;13.17;79.07
54920;BME280;63804;53.120;8.764;2023-10-31T08:56:42;99723.03;;;13.14;79.45
54920;BME280;63804;53.120;8.764;2023-10-31T08:59:10;99731.84;;;13.14;79.17
54920;BME280;63804;53.120;8.764;2023-10-31T09:01:37;99731.22;;;13.21;79.05
54920;BME280;63804;53.120;8.764;2023-10-31T09:04:05;99736.16;;;13.15;79.02
54920;BME280;63804;53.120;8.764;2023-10-31T09:06:33;99739.19;;;13.21;78.99
54920;BME280;63804;53.120;8.764;2023-10-31T09:09:00;99747.78;;;13.14;79.02
54920;BME280;63804;53.120;8.764;2023-10-31T09:11:28;99744.13;;;13.15;79.25
54920;BME280;63804;53.120;8.764;2023-10-31T09:13:56;99746.13;;;13.13;79.43
54920;BME280;63804;53.120;8.764;2023-10-31T09:16:27;99749.91;;;13.11;79.25
54920;BME280;63804;53.120;8.764;2023-10-31T09:18:54;99762.16;;;13.04;79.58
54920;BME280;63804;53.120;8.764;2023-10-31T09:21:22;99760.19;;;13.06;80.00
54920;BME280;63804;53.120;8.764;2023-10-31T09:23:49;99765.78;;;13.03;79.81
54920;BME280;63804;53.120;8.764;2023-10-31T09:26:17;99764.19;;;13.10;79.60
54920;BME280;63804;53.120;8.764;2023-10-31T09:28:45;99766.38;;;13.14;79.54
54920;BME280;63804;53.120;8.764;2023-10-31T09:31:17;99770.25;;;13.20;79.40
54920;BME280;63804;53.120;8.764;2023-10-31T09:33:45;99782.34;;;13.14;79.75
54920;BME280;63804;53.120;8.764;2023-10-31T09:36:13;99785.22;;;13.21;79.42
54920;BME280;63804;53.120;8.764;2023-10-31T09:38:42;99796.75;;;13.12;79.99
54920;BME280;63804;53.120;8.764;2023-10-31T09:41:09;99797.00;;;13.18;79.38
54920;BME280;63804;53.120;8.764;2023-10-31T09:43:37;99808.47;;;13.19;79.55
54920;BME280;63804;53.120;8.764;2023-10-31T09:46:05;99826.19;;;13.28;79.41
54920;BME280;63804;53.120;8.764;2023-10-31T09:48:33;99820.03;;;13.28;79.68
54920;BME280;63804;53.120;8.764;2023-10-31T09:51:02;99830.81;;;13.26;79.59
54920;BME280;63804;53.120;8.764;2023-10-31T09:53:31;99820.56;;;13.31;79.58
54920;BME280;63804;53.120;8.764;2023-10-31T09:56:01;99836.38;;;13.33;79.54
54920;BME280;63804;53.120;8.764;2023-10-31T09:58:29;99833.72;;;13.33;79.85
54920;BME280;63804;53.120;8.764;2023-10-31T10:00:57;99835.66;;;13.31;79.94
54920;BME280;63804;53.120;8.764;2023-10-31T10:03:26;99838.69;;;13.18;80.34
54920;BME280;63804;53.120;8.764;2023-10-31T10:05:54;99851.44;;;13.24;80.08
54920;BME280;63804;53.120;8.764;2023-10-31T10:08:22;99848.78;;;13.24;80.11
54920;BME280;63804;53.120;8.764;2023-10-31T10:10:50;99852.94;;;13.27;80.07
54920;BME280;63804;53.120;8.764;2023-10-31T10:13:20;99854.34;;;13.39;80.12
54920;BME280;63804;53.120;8.764;2023-10-31T10:15:50;99859.25;;;13.44;79.94
54920;BME280;63804;53.120;8.764;2023-10-31T10:18:31;99865.75;;;13.49;80.18
54920;BME280;63804;53.120;8.764;2023-10-31T10:21:01;99869.09;;;13.51;79.87
54920;BME280;63804;53.120;8.764;2023-10-31T10:23:30;99862.19;;;13.58;79.39
54920;BME280;63804;53.120;8.764;2023-10-31T10:26:02;99858.06;;;13.64;79.04
54920;BME280;63804;53.120;8.764;2023-10-31T10:28:30;99852.66;;;13.74;78.88
54920;BME280;63804;53.120;8.764;2023-10-31T10:30:59;99858.63;;;13.76;79.17
54920;BME280;63804;53.120;8.764;2023-10-31T10:33:27;99855.38;;;13.82;78.98
54920;BME280;63804;53.120;8.764;2023-10-31T10:35:55;99862.19;;;13.84;78.83
54920;BME280;63804;53.120;8.764;2023-10-31T10:38:23;99871.69;;;13.87;78.95
54920;BME280;63804;53.120;8.764;2023-10-31T10:40:53;99872.22;;;13.90;78.27
54920;BME280;63804;53.120;8.764;2023-10-31T10:43:24;99872.81;;;13.84;78.62
54920;BME280;63804;53.120;8.764;2023-10-31T10:45:57;99873.81;;;13.83;78.86
54920;BME280;63804;53.120;8.764;2023-10-31T10:48:26;99876.13;;;13.78;78.83
54920;BME280;63804;53.120;8.764;2023-10-31T10:51:01;99882.81;;;13.82;78.86
54920;BME280;63804;53.120;8.764;2023-10-31T10:53:55;99883.94;;;13.80;78.49
54920;BME280;63804;53.120;8.764;2023-10-31T10:56:38;99894.84;;;13.69;79.11
54920;BME280;63804;53.120;8.764;2023-10-31T10:59:14;99899.50;;;13.67;79.03
54920;BME280;63804;53.120;8.764;2023-10-31T11:01:45;99896.66;;;13.68;78.80
54920;BME280;63804;53.120;8.764;2023-10-31T11:04:14;99904.47;;;13.70;78.62
54920;BME280;63804;53.120;8.764;2023-10-31T11:06:42;99903.50;;;13.71;78.97
54920;BME280;63804;53.120;8.764;2023-10-31T11:09:10;99902.75;;;13.60;79.33
54920;BME280;63804;53.120;8.764;2023-10-31T11:11:39;99898.72;;;13.56;79.71
54920;BME280;63804;53.120;8.764;2023-10-31T11:14:07;99903.34;;;13.54;79.81
54920;BME280;63804;53.120;8.764;2023-10-31T11:17:06;99910.66;;;13.70;79.77
54920;BME280;63804;53.120;8.764;2023-10-31T11:19:37;99913.41;;;13.60;79.95
54920;BME280;63804;53.120;8.764;2023-10-31T11:22:05;99914.09;;;13.62;79.92
54920;BME280;63804;53.120;8.764;2023-10-31T11:24:36;99916.94;;;13.69;79.84
54920;BME280;63804;53.120;8.764;2023-10-31T11:27:05;99924.81;;;13.71;79.83
54920;BME280;63804;53.120;8.764;2023-10-31T11:29:35;99924.69;;;13.80;79.74
54920;BME280;63804;53.120;8.764;2023-10-31T11:32:04;99923.78;;;13.89;79.50
54920;BME280;63804;53.120;8.764;2023-10-31T11:34:38;99922.31;;;13.95;79.02
54920;BME280;63804;53.120;8.764;2023-10-31T11:37:25;99920.53;;;14.04;78.88
54920;BME280;63804;53.120;8.764;2023-10-31T11:40:19;99925.56;;;14.07;78.42
54920;BME280;63804;53.120;8.764;2023-10-31T11:42:58;99931.09;;;14.13;78.75
54920;BME280;63804;53.120;8.764;2023-10-31T11:45:41;99926.81;;;14.21;78.56
54920;BME280;63804;53.120;8.764;2023-10-31T11:48:09;99940.47;;;14.00;79.42
54920;BME280;63804;53.120;8.764;2023-10-31T11:50:39;99939.34;;;14.02;79.60
54920;BME280;63804;53.120;8.764;2023-10-31T11:53:11;99941.53;;;14.07;79.37
54920;BME280;63804;53.120;8.764;2023-10-31T12:00:40;99949.13;;;14.20;79.52
54920;BME280;63804;53.120;8.764;2023-10-31T12:03:09;99950.22;;;14.35;78.83
54920;BME280;63804;53.120;8.764;2023-10-31T12:05:37;99955.03;;;14.31;79.14
54920;BME280;63804;53.120;8.764;2023-10-31T12:08:05;99958.81;;;14.29;78.95
54920;BME280;63804;53.120;8.764;2023-10-31T12:10:33;99961.81;;;14.26;79.41
54920;BME280;63804;53.120;8.764;2023-10-31T12:13:00;99961.28;;;14.22;79.47
54920;BME280;63804;53.120;8.764;2023-10-31T12:15:28;99965.19;;;14.10;79.47
54920;BME280;63804;53.120;8.764;2023-10-31T12:17:59;99969.00;;;14.07;79.34
54920;BME280;63804;53.120;8.764;2023-10-31T12:20:29;99960.72;;;13.93;80.16
54920;BME280;63804;53.120;8.764;2023-10-31T12:23:04;99966.72;;;13.95;80.27
54920;BME280;63804;53.120;8.764;2023-10-31T12:25:32;99967.97;;;13.82;80.87
54920;BME280;63804;53.120;8.764;2023-10-31T12:28:03;99988.09;;;13.85;80.87
54920;BME280;63804;53.120;8.764;2023-10-31T12:30:31;99992.38;;;13.78;81.37
54920;BME280;63804;53.120;8.764;2023-10-31T12:32:59;99996.53;;;13.80;80.82
54920;BME280;63804;53.120;8.764;2023-10-31T12:35:27;100007.25;;;13.88;79.73
54920;BME280;63804;53.120;8.764;2023-10-31T12:37:55;100031.69;;;13.84;78.44
54920;BME280;63804;53.120;8.764;2023-10-31T12:40:24;100043.84;;;13.69;78.29
54920;BME280;63804;53.120;8.764;2023-10-31T12:42:53;100060.56;;;13.61;78.46
54920;BME280;63804;53.120;8.764;2023-10-31T12:45:20;100063.72;;;13.47;78.36
54920;BME280;63804;53.120;8.764;2023-10-31T12:48:04;100074.31;;;13.56;77.31
54920;BME280;63804;53.120;8.764;2023-10-31T12:50:33;100072.75;;;13.36;77.73
54920;BME280;63804;53.120;8.764;2023-10-31T12:53:01;100092.81;;;13.21;77.50
54920;BME280;63804;53.120;8.764;2023-10-31T12:55:37;100103.03;;;13.25;76.88
54920;BME280;63804;53.120;8.764;2023-10-31T12:58:06;100106.28;;;13.09;76.95
54920;BME280;63804;53.120;8.764;2023-10-31T13:00:34;100117.63;;;13.02;77.05
54920;BME280;63804;53.120;8.764;2023-10-31T13:03:07;100127.72;;;12.98;76.78
54920;BME280;63804;53.120;8.764;2023-10-31T13:05:35;100136.66;;;12.97;76.48
54920;BME280;63804;53.120;8.764;2023-10-31T13:08:03;100133.47;;;12.93;76.58
54920;BME280;63804;53.120;8.764;2023-10-31T13:10:33;100138.63;;;12.95;76.36
54920;BME280;63804;53.120;8.764;2023-10-31T13:13:01;100149.69;;;12.90;76.26